sensor_id;sensor_type;location;lat;lon;timestamp;P1;durP1;ratioP1;P2;durP2;ratioP2
7761;SDS011;3925;48.636;9.516;2022-11-12T00:01:15;34.47;;;12.47;;
7761;SDS011;3925;48.636;9.516;2022-11-12T00:03:42;17.57;;;11.00;;
7761;SDS011;3925;48.636;9.516;2022-11-12T00:06:09;14.77;;;9.60;;
7761;SDS011;3925;48.636;9.516;2022-11-12T00:08:37;39.00;;;13.03;;
7761;SDS011;3925;48.636;9.516;2022-11-12T00:11:04;20.53;;;11.70;;
7761;SDS011;3925;48.636;9.516;2022-11-12T00:13:31;20.20;;;10.93;;
7761;SDS011;3925;48.636;9.516;2022-11-12T00:15:58;20.53;;;11.40;;
7761;SDS011;3925;48.636;9.516;2022-11-12T00:18:25;15.50;;;12.17;;
7761;SDS011;3925;48.636;9.516;2022-11-12T00:20:52;17.73;;;12.50;;
7761;SDS011;3925;48.636;9.516;2022-11-12T00:23:19;13.83;;;11.57;;
7761;SDS011;3925;48.636;9.516;2022-11-12T00:25:47;14.20;;;10.77;;
7761;SDS011;3925;48.636;9.516;2022-11-12T00:28:24;16.83;;;10.67;;
7761;SDS011;3925;48.636;9.516;2022-11-12T00:30:51;19.60;;;11.07;;
7761;SDS011;3925;48.636;9.516;2022-11-12T00:33:17;12.93;;;10.40;;
7761;SDS011;3925;48.636;9.516;2022-11-12T00:35:44;21.17;;;12.47;;
7761;SDS011;3925;48.636;9.516;2022-11-12T00:38:12;40.23;;;16.90;;
7761;SDS011;3925;48.636;9.516;2022-11-12T00:40:39;39.77;;;13.40;;
7761;SDS011;3925;48.636;9.516;2022-11-12T00:43:08;29.10;;;9.67;;
7761;SDS011;3925;48.636;9.516;2022-11-12T00:45:35;10.50;;;8.07;;
7761;SDS011;3925;48.636;9.516;2022-11-12T00:48:01;12.70;;;8.00;;
7761;SDS011;3925;48.636;9.516;2022-11-12T00:50:29;8.60;;;7.70;;
7761;SDS011;3925;48.636;9.516;2022-11-12T00:52:56;12.53;;;8.83;;
7761;SDS011;3925;48.636;9.516;2022-11-12T00:55:23;12.77;;;7.97;;
7761;SDS011;3925;48.636;9.516;2022-11-12T00:57:49;9.47;;;6.87;;
7761;SDS011;3925;48.636;9.516;2022-11-12T01:00:18;9.43;;;7.00;;
7761;SDS011;3925;48.636;9.516;2022-11-12T01:02:45;8.13;;;5.83;;
7761;SDS011;3925;48.636;9.516;2022-11-12T01:05:12;8.47;;;7.50;;
7761;SDS011;3925;48.636;9.516;2022-11-12T01:07:39;10.13;;;7.50;;
7761;SDS011;3925;48.636;9.516;2022-11-12T01:10:06;9.13;;;8.10;;
7761;SDS011;3925;48.636;9.516;2022-11-12T01:12:34;9.03;;;8.07;;
7761;SDS011;3925;48.636;9.516;2022-11-12T01:15:01;11.53;;;8.20;;
7761;SDS011;3925;48.636;9.516;2022-11-12T01:17:30;10.27;;;7.97;;
7761;SDS011;3925;48.636;9.516;2022-11-12T01:19:56;8.33;;;7.53;;
7761;SDS011;3925;48.636;9.516;2022-11-12T01:22:24;8.23;;;7.33;;
7761;SDS011;3925;48.636;9.516;2022-11-12T01:24:51;7.33;;;6.57;;
7761;SDS011;3925;48.636;9.516;2022-11-12T01:27:17;10.10;;;7.20;;
7761;SDS011;3925;48.636;9.516;2022-11-12T01:29:44;7.20;;;6.50;;
7761;SDS011;3925;48.636;9.516;2022-11-12T01:32:11;7.47;;;6.73;;
7761;SDS011;3925;48.636;9.516;2022-11-12T01:34:39;8.47;;;7.27;;
7761;SDS011;3925;48.636;9.516;2022-11-12T01:37:06;6.83;;;6.23;;
7761;SDS011;3925;48.636;9.516;2022-11-12T01:39:33;7.07;;;6.47;;
7761;SDS011;3925;48.636;9.516;2022-11-12T01:42:00;7.53;;;6.93;;
7761;SDS011;3925;48.636;9.516;2022-11-12T01:44:29;9.13;;;7.03;;
7761;SDS011;3925;48.636;9.516;2022-11-12T01:46:58;6.77;;;6.13;;
7761;SDS011;3925;48.636;9.516;2022-11-12T01:49:30;10.30;;;7.13;;
7761;SDS011;3925;48.636;9.516;2022-11-12T01:52:04;9.30;;;7.20;;
7761;SDS011;3925;48.636;9.516;2022-11-12T01:54:36;8.27;;;6.60;;
7761;SDS011;3925;48.636;9.516;2022-11-12T01:57:04;8.83;;;7.90;;
7761;SDS011;3925;48.636;9.516;2022-11-12T01:59:36;8.60;;;7.60;;
7761;SDS011;3925;48.636;9.516;2022-11-12T02:02:07;8.17;;;6.33;;
7761;SDS011;3925;48.636;9.516;2022-11-12T02:04:34;8.13;;;6.97;;
7761;SDS011;3925;48.636;9.516;2022-11-12T02:07:03;7.90;;;7.07;;
7761;SDS011;3925;48.636;9.516;2022-11-12T02:09:33;12.10;;;6.63;;
7761;SDS011;3925;48.636;9.516;2022-11-12T02:12:01;6.50;;;5.80;;
7761;SDS011;3925;48.636;9.516;2022-11-12T02:14:28;9.10;;;6.07;;
7761;SDS011;3925;48.636;9.516;2022-11-12T02:16:55;8.37;;;6.43;;
7761;SDS011;3925;48.636;9.516;2022-11-12T02:19:23;6.90;;;6.20;;
7761;SDS011;3925;48.636;9.516;2022-11-12T02:21:53;6.77;;;6.17;;
7761;SDS011;3925;48.636;9.516;2022-11-12T02:24:30;6.30;;;5.70;;
7761;SDS011;3925;48.636;9.516;2022-11-12T02:26:58;5.80;;;5.30;;
7761;SDS011;3925;48.636;9.516;2022-11-12T02:29:26;7.60;;;5.70;;
7761;SDS011;3925;48.636;9.516;2022-11-12T02:31:52;9.03;;;5.20;;
7761;SDS011;3925;48.636;9.516;2022-11-12T02:34:20;4.90;;;4.50;;
7761;SDS011;3925;48.636;9.516;2022-11-12T02:36:46;5.87;;;5.17;;
7761;SDS011;3925;48.636;9.516;2022-11-12T02:39:15;8.83;;;5.47;;
7761;SDS011;3925;48.636;9.516;2022-11-12T02:41:42;7.27;;;5.67;;
7761;SDS011;3925;48.636;9.516;2022-11-12T02:44:08;7.50;;;6.23;;
7761;SDS011;3925;48.636;9.516;2022-11-12T02:46:36;6.40;;;5.80;;
7761;SDS011;3925;48.636;9.516;2022-11-12T02:49:02;12.33;;;6.90;;
7761;SDS011;3925;48.636;9.516;2022-11-12T02:51:29;22.97;;;7.83;;
7761;SDS011;3925;48.636;9.516;2022-11-12T02:53:56;7.83;;;6.70;;
7761;SDS011;3925;48.636;9.516;2022-11-12T02:56:24;16.83;;;8.60;;
7761;SDS011;3925;48.636;9.516;2022-11-12T02:58:51;19.93;;;7.40;;
7761;SDS011;3925;48.636;9.516;2022-11-12T03:01:18;22.93;;;8.80;;
7761;SDS011;3925;48.636;9.516;2022-11-12T03:03:45;9.00;;;7.23;;
7761;SDS011;3925;48.636;9.516;2022-11-12T03:06:12;12.13;;;7.47;;
7761;SDS011;3925;48.636;9.516;2022-11-12T03:08:39;14.17;;;8.40;;
7761;SDS011;3925;48.636;9.516;2022-11-12T03:11:06;11.10;;;7.87;;
7761;SDS011;3925;48.636;9.516;2022-11-12T03:13:35;14.87;;;7.10;;
7761;SDS011;3925;48.636;9.516;2022-11-12T03:16:03;7.47;;;6.20;;
7761;SDS011;3925;48.636;9.516;2022-11-12T03:18:30;9.30;;;6.80;;
7761;SDS011;3925;48.636;9.516;2022-11-12T03:20:57;13.97;;;7.63;;
7761;SDS011;3925;48.636;9.516;2022-11-12T03:23:24;9.23;;;6.40;;
7761;SDS011;3925;48.636;9.516;2022-11-12T03:25:52;7.60;;;6.90;;
7761;SDS011;3925;48.636;9.516;2022-11-12T03:28:19;7.43;;;6.67;;
7761;SDS011;3925;48.636;9.516;2022-11-12T03:30:47;17.00;;;8.53;;
7761;SDS011;3925;48.636;9.516;2022-11-12T03:33:14;13.37;;;7.13;;
7761;SDS011;3925;48.636;9.516;2022-11-12T03:35:41;14.80;;;9.17;;
7761;SDS011;3925;48.636;9.516;2022-11-12T03:38:08;20.23;;;8.53;;
7761;SDS011;3925;48.636;9.516;2022-11-12T03:40:35;24.33;;;10.27;;
7761;SDS011;3925;48.636;9.516;2022-11-12T03:43:02;18.67;;;10.83;;
7761;SDS011;3925;48.636;9.516;2022-11-12T03:45:29;17.03;;;10.00;;
7761;SDS011;3925;48.636;9.516;2022-11-12T03:47:57;11.33;;;9.67;;
7761;SDS011;3925;48.636;9.516;2022-11-12T03:50:26;10.53;;;8.30;;
7761;SDS011;3925;48.636;9.516;2022-11-12T03:52:54;11.80;;;7.20;;
7761;SDS011;3925;48.636;9.516;2022-11-12T03:55:23;8.90;;;7.00;;
7761;SDS011;3925;48.636;9.516;2022-11-12T03:57:51;10.30;;;7.43;;
7761;SDS011;3925;48.636;9.516;2022-11-12T04:00:19;9.50;;;7.83;;
7761;SDS011;3925;48.636;9.516;2022-11-12T04:02:48;7.43;;;6.57;;
7761;SDS011;3925;48.636;9.516;2022-11-12T04:05:16;9.43;;;8.43;;
7761;SDS011;3925;48.636;9.516;2022-11-12T04:08:02;8.30;;;7.27;;
7761;SDS011;3925;48.636;9.516;2022-11-12T04:10:48;7.27;;;6.57;;
7761;SDS011;3925;48.636;9.516;2022-11-12T04:13:15;8.50;;;6.90;;
7761;SDS011;3925;48.636;9.516;2022-11-12T04:15:54;9.13;;;7.13;;
7761;SDS011;3925;48.636;9.516;2022-11-12T04:18:39;6.97;;;6.27;;
7761;SDS011;3925;48.636;9.516;2022-11-12T04:21:24;7.53;;;6.73;;
7761;SDS011;3925;48.636;9.516;2022-11-12T04:24:12;8.07;;;7.27;;
7761;SDS011;3925;48.636;9.516;2022-11-12T04:26:59;11.53;;;8.97;;
7761;SDS011;3925;48.636;9.516;2022-11-12T04:29:25;9.83;;;7.20;;
7761;SDS011;3925;48.636;9.516;2022-11-12T04:32:10;12.93;;;7.87;;
7761;SDS011;3925;48.636;9.516;2022-11-12T04:34:37;9.97;;;7.73;;
7761;SDS011;3925;48.636;9.516;2022-11-12T04:37:05;8.67;;;7.80;;
7761;SDS011;3925;48.636;9.516;2022-11-12T04:39:32;10.90;;;7.73;;
7761;SDS011;3925;48.636;9.516;2022-11-12T04:41:59;26.80;;;8.13;;
7761;SDS011;3925;48.636;9.516;2022-11-12T04:44:43;19.53;;;7.90;;
7761;SDS011;3925;48.636;9.516;2022-11-12T04:47:30;25.37;;;7.70;;
7761;SDS011;3925;48.636;9.516;2022-11-12T04:49:59;36.80;;;9.00;;
7761;SDS011;3925;48.636;9.516;2022-11-12T04:52:28;15.77;;;7.33;;
7761;SDS011;3925;48.636;9.516;2022-11-12T04:54:56;14.77;;;8.27;;
7761;SDS011;3925;48.636;9.516;2022-11-12T04:57:23;8.27;;;6.97;;
7761;SDS011;3925;48.636;9.516;2022-11-12T04:59:51;14.23;;;7.70;;
7761;SDS011;3925;48.636;9.516;2022-11-12T05:02:18;10.20;;;8.00;;
7761;SDS011;3925;48.636;9.516;2022-11-12T05:04:45;10.63;;;6.50;;
7761;SDS011;3925;48.636;9.516;2022-11-12T05:07:12;11.30;;;7.27;;
7761;SDS011;3925;48.636;9.516;2022-11-12T05:09:41;12.53;;;7.57;;
7761;SDS011;3925;48.636;9.516;2022-11-12T05:12:08;10.00;;;6.80;;
7761;SDS011;3925;48.636;9.516;2022-11-12T05:14:35;6.83;;;6.13;;
7761;SDS011;3925;48.636;9.516;2022-11-12T05:17:02;11.00;;;6.23;;
7761;SDS011;3925;48.636;9.516;2022-11-12T05:19:29;7.20;;;6.47;;
7761;SDS011;3925;48.636;9.516;2022-11-12T05:21:58;10.67;;;7.47;;
7761;SDS011;3925;48.636;9.516;2022-11-12T05:24:30;23.63;;;8.37;;
7761;SDS011;3925;48.636;9.516;2022-11-12T05:26:59;10.67;;;6.73;;
7761;SDS011;3925;48.636;9.516;2022-11-12T05:29:26;10.33;;;6.00;;
7761;SDS011;3925;48.636;9.516;2022-11-12T05:31:54;42.10;;;8.40;;
7761;SDS011;3925;48.636;9.516;2022-11-12T05:34:22;15.30;;;7.90;;
7761;SDS011;3925;48.636;9.516;2022-11-12T05:36:49;16.33;;;7.70;;
7761;SDS011;3925;48.636;9.516;2022-11-12T05:39:17;12.60;;;7.47;;
7761;SDS011;3925;48.636;9.516;2022-11-12T05:41:43;14.07;;;7.20;;
7761;SDS011;3925;48.636;9.516;2022-11-12T05:44:12;16.90;;;8.50;;
7761;SDS011;3925;48.636;9.516;2022-11-12T05:46:38;14.87;;;8.27;;
7761;SDS011;3925;48.636;9.516;2022-11-12T05:49:05;10.33;;;7.70;;
7761;SDS011;3925;48.636;9.516;2022-11-12T05:51:32;25.37;;;8.13;;
7761;SDS011;3925;48.636;9.516;2022-11-12T05:53:59;7.30;;;6.60;;
7761;SDS011;3925;48.636;9.516;2022-11-12T05:56:27;9.60;;;6.80;;
7761;SDS011;3925;48.636;9.516;2022-11-12T05:58:54;10.27;;;7.00;;
7761;SDS011;3925;48.636;9.516;2022-11-12T06:01:22;8.37;;;6.37;;
7761;SDS011;3925;48.636;9.516;2022-11-12T06:03:49;8.60;;;7.67;;
7761;SDS011;3925;48.636;9.516;2022-11-12T06:06:16;8.03;;;6.83;;
7761;SDS011;3925;48.636;9.516;2022-11-12T06:08:43;10.27;;;7.33;;
7761;SDS011;3925;48.636;9.516;2022-11-12T06:11:10;16.90;;;9.50;;
7761;SDS011;3925;48.636;9.516;2022-11-12T06:13:37;15.20;;;8.80;;
7761;SDS011;3925;48.636;9.516;2022-11-12T06:16:04;17.00;;;8.27;;
7761;SDS011;3925;48.636;9.516;2022-11-12T06:18:33;9.40;;;8.00;;
7761;SDS011;3925;48.636;9.516;2022-11-12T06:21:00;12.27;;;9.33;;
7761;SDS011;3925;48.636;9.516;2022-11-12T06:23:47;9.37;;;7.77;;
7761;SDS011;3925;48.636;9.516;2022-11-12T06:26:15;10.20;;;8.13;;
7761;SDS011;3925;48.636;9.516;2022-11-12T06:28:42;10.80;;;7.90;;
7761;SDS011;3925;48.636;9.516;2022-11-12T06:31:10;8.27;;;7.47;;
7761;SDS011;3925;48.636;9.516;2022-11-12T06:33:38;8.10;;;7.37;;
7761;SDS011;3925;48.636;9.516;2022-11-12T06:36:05;8.20;;;7.40;;
7761;SDS011;3925;48.636;9.516;2022-11-12T06:38:33;9.80;;;7.37;;
7761;SDS011;3925;48.636;9.516;2022-11-12T06:41:01;7.17;;;6.40;;
7761;SDS011;3925;48.636;9.516;2022-11-12T06:43:29;11.10;;;8.83;;
7761;SDS011;3925;48.636;9.516;2022-11-12T06:45:58;7.60;;;6.20;;
7761;SDS011;3925;48.636;9.516;2022-11-12T06:48:26;7.43;;;6.73;;
7761;SDS011;3925;48.636;9.516;2022-11-12T06:50:55;5.87;;;5.30;;
7761;SDS011;3925;48.636;9.516;2022-11-12T06:53:22;6.97;;;6.00;;
7761;SDS011;3925;48.636;9.516;2022-11-12T06:55:49;7.23;;;6.40;;
7761;SDS011;3925;48.636;9.516;2022-11-12T06:58:16;10.33;;;7.53;;
7761;SDS011;3925;48.636;9.516;2022-11-12T07:00:43;7.90;;;6.93;;
7761;SDS011;3925;48.636;9.516;2022-11-12T07:03:11;7.80;;;6.93;;
7761;SDS011;3925;48.636;9.516;2022-11-12T07:05:40;9.80;;;8.33;;
7761;SDS011;3925;48.636;9.516;2022-11-12T07:08:08;8.20;;;7.27;;
7761;SDS011;3925;48.636;9.516;2022-11-12T07:10:35;8.60;;;7.70;;
7761;SDS011;3925;48.636;9.516;2022-11-12T07:13:02;8.63;;;6.97;;
7761;SDS011;3925;48.636;9.516;2022-11-12T07:15:30;9.07;;;6.90;;
7761;SDS011;3925;48.636;9.516;2022-11-12T07:17:57;8.17;;;7.33;;
7761;SDS011;3925;48.636;9.516;2022-11-12T07:20:23;6.73;;;6.03;;
7761;SDS011;3925;48.636;9.516;2022-11-12T07:22:50;11.20;;;7.33;;
7761;SDS011;3925;48.636;9.516;2022-11-12T07:25:19;7.63;;;6.83;;
7761;SDS011;3925;48.636;9.516;2022-11-12T07:27:46;8.47;;;7.77;;
7761;SDS011;3925;48.636;9.516;2022-11-12T07:30:14;8.17;;;7.37;;
7761;SDS011;3925;48.636;9.516;2022-11-12T07:32:41;9.00;;;8.10;;
7761;SDS011;3925;48.636;9.516;2022-11-12T07:35:08;11.60;;;8.33;;
7761;SDS011;3925;48.636;9.516;2022-11-12T07:37:35;8.43;;;7.50;;
7761;SDS011;3925;48.636;9.516;2022-11-12T07:40:02;9.50;;;6.73;;
7761;SDS011;3925;48.636;9.516;2022-11-12T07:42:32;10.27;;;7.60;;
7761;SDS011;3925;48.636;9.516;2022-11-12T07:44:59;15.57;;;10.43;;
7761;SDS011;3925;48.636;9.516;2022-11-12T07:47:26;11.03;;;9.77;;
7761;SDS011;3925;48.636;9.516;2022-11-12T07:49:53;11.73;;;8.43;;
7761;SDS011;3925;48.636;9.516;2022-11-12T07:52:20;12.67;;;8.43;;
7761;SDS011;3925;48.636;9.516;2022-11-12T07:54:47;6.90;;;6.17;;
7761;SDS011;3925;48.636;9.516;2022-11-12T07:57:14;6.70;;;6.10;;
7761;SDS011;3925;48.636;9.516;2022-11-12T07:59:42;7.30;;;6.53;;
7761;SDS011;3925;48.636;9.516;2022-11-12T08:02:09;6.53;;;5.93;;
7761;SDS011;3925;48.636;9.516;2022-11-12T08:04:36;6.37;;;5.87;;
7761;SDS011;3925;48.636;9.516;2022-11-12T08:07:03;6.60;;;6.00;;
7761;SDS011;3925;48.636;9.516;2022-11-12T08:09:29;6.33;;;5.80;;
7761;SDS011;3925;48.636;9.516;2022-11-12T08:11:56;6.03;;;5.43;;
7761;SDS011;3925;48.636;9.516;2022-11-12T08:14:23;5.93;;;5.53;;
7761;SDS011;3925;48.636;9.516;2022-11-12T08:16:51;4.77;;;4.47;;
7761;SDS011;3925;48.636;9.516;2022-11-12T08:19:18;5.20;;;4.80;;
7761;SDS011;3925;48.636;9.516;2022-11-12T08:21:45;5.43;;;4.97;;
7761;SDS011;3925;48.636;9.516;2022-11-12T08:24:12;5.50;;;5.07;;
7761;SDS011;3925;48.636;9.516;2022-11-12T08:26:39;6.10;;;5.60;;
7761;SDS011;3925;48.636;9.516;2022-11-12T08:29:06;5.83;;;5.20;;
7761;SDS011;3925;48.636;9.516;2022-11-12T08:31:33;6.90;;;6.30;;
7761;SDS011;3925;48.636;9.516;2022-11-12T08:34:01;5.30;;;4.90;;
7761;SDS011;3925;48.636;9.516;2022-11-12T08:36:36;6.70;;;6.10;;
7761;SDS011;3925;48.636;9.516;2022-11-12T08:39:04;5.23;;;4.57;;
7761;SDS011;3925;48.636;9.516;2022-11-12T08:41:31;5.23;;;4.77;;
7761;SDS011;3925;48.636;9.516;2022-11-12T08:43:58;7.20;;;4.93;;
7761;SDS011;3925;48.636;9.516;2022-11-12T08:46:25;4.87;;;4.47;;
7761;SDS011;3925;48.636;9.516;2022-11-12T08:48:52;5.27;;;4.87;;
7761;SDS011;3925;48.636;9.516;2022-11-12T08:51:20;4.80;;;4.40;;
7761;SDS011;3925;48.636;9.516;2022-11-12T08:53:47;20.20;;;5.40;;
7761;SDS011;3925;48.636;9.516;2022-11-12T08:56:14;5.07;;;4.73;;
7761;SDS011;3925;48.636;9.516;2022-11-12T08:58:41;5.57;;;5.17;;
7761;SDS011;3925;48.636;9.516;2022-11-12T09:01:08;5.47;;;5.07;;
7761;SDS011;3925;48.636;9.516;2022-11-12T09:03:35;5.90;;;5.40;;
7761;SDS011;3925;48.636;9.516;2022-11-12T09:06:02;6.97;;;6.27;;
7761;SDS011;3925;48.636;9.516;2022-11-12T09:08:32;5.80;;;5.40;;
7761;SDS011;3925;48.636;9.516;2022-11-12T09:11:00;8.03;;;7.23;;
7761;SDS011;3925;48.636;9.516;2022-11-12T09:13:28;8.70;;;7.90;;
7761;SDS011;3925;48.636;9.516;2022-11-12T09:15:58;9.10;;;6.47;;
7761;SDS011;3925;48.636;9.516;2022-11-12T09:18:26;7.43;;;6.73;;
7761;SDS011;3925;48.636;9.516;2022-11-12T09:20:57;25.63;;;8.23;;
7761;SDS011;3925;48.636;9.516;2022-11-12T09:23:25;5.53;;;5.03;;
7761;SDS011;3925;48.636;9.516;2022-11-12T09:25:54;5.67;;;5.27;;
7761;SDS011;3925;48.636;9.516;2022-11-12T09:28:22;7.67;;;6.97;;
7761;SDS011;3925;48.636;9.516;2022-11-12T09:30:49;9.37;;;8.47;;
7761;SDS011;3925;48.636;9.516;2022-11-12T09:33:18;9.53;;;8.63;;
7761;SDS011;3925;48.636;9.516;2022-11-12T09:35:46;9.30;;;8.50;;
7761;SDS011;3925;48.636;9.516;2022-11-12T09:38:13;8.70;;;7.90;;
7761;SDS011;3925;48.636;9.516;2022-11-12T09:40:47;8.47;;;7.67;;
7761;SDS011;3925;48.636;9.516;2022-11-12T09:43:27;8.00;;;7.23;;
7761;SDS011;3925;48.636;9.516;2022-11-12T09:45:58;7.63;;;6.87;;
7761;SDS011;3925;48.636;9.516;2022-11-12T09:48:31;6.90;;;6.30;;
7761;SDS011;3925;48.636;9.516;2022-11-12T09:51:01;6.23;;;5.73;;
7761;SDS011;3925;48.636;9.516;2022-11-12T09:53:33;7.50;;;6.73;;
7761;SDS011;3925;48.636;9.516;2022-11-12T09:56:09;6.90;;;6.30;;
7761;SDS011;3925;48.636;9.516;2022-11-12T09:58:38;6.63;;;6.03;;
7761;SDS011;3925;48.636;9.516;2022-11-12T10:01:08;5.70;;;5.30;;
7761;SDS011;3925;48.636;9.516;2022-11-12T10:03:42;6.23;;;5.70;;
7761;SDS011;3925;48.636;9.516;2022-11-12T10:06:17;5.90;;;5.50;;
7761;SDS011;3925;48.636;9.516;2022-11-12T10:08:47;7.20;;;6.70;;
7761;SDS011;3925;48.636;9.516;2022-11-12T10:14:47;5.80;;;5.40;;
7761;SDS011;3925;48.636;9.516;2022-11-12T10:17:46;7.43;;;6.83;;
7761;SDS011;3925;48.636;9.516;2022-11-12T10:20:19;7.07;;;6.50;;
7761;SDS011;3925;48.636;9.516;2022-11-12T10:22:56;7.00;;;5.93;;
7761;SDS011;3925;48.636;9.516;2022-11-12T10:25:31;7.53;;;6.37;;
7761;SDS011;3925;48.636;9.516;2022-11-12T10:28:00;5.67;;;5.17;;
7761;SDS011;3925;48.636;9.516;2022-11-12T10:30:39;4.63;;;4.33;;
7761;SDS011;3925;48.636;9.516;2022-11-12T10:33:09;6.80;;;6.23;;
7761;SDS011;3925;48.636;9.516;2022-11-12T10:35:38;7.70;;;6.63;;
7761;SDS011;3925;48.636;9.516;2022-11-12T10:38:06;6.57;;;6.07;;
7761;SDS011;3925;48.636;9.516;2022-11-12T10:40:39;6.77;;;6.17;;
7761;SDS011;3925;48.636;9.516;2022-11-12T10:43:19;5.50;;;5.00;;
7761;SDS011;3925;48.636;9.516;2022-11-12T10:45:49;5.70;;;5.30;;
7761;SDS011;3925;48.636;9.516;2022-11-12T10:48:20;5.10;;;4.80;;
7761;SDS011;3925;48.636;9.516;2022-11-12T10:50:49;5.67;;;5.17;;
7761;SDS011;3925;48.636;9.516;2022-11-12T10:53:27;6.80;;;6.20;;
7761;SDS011;3925;48.636;9.516;2022-11-12T10:55:58;6.67;;;6.10;;
7761;SDS011;3925;48.636;9.516;2022-11-12T10:58:26;5.73;;;5.23;;
7761;SDS011;3925;48.636;9.516;2022-11-12T11:00:56;7.60;;;7.00;;
7761;SDS011;3925;48.636;9.516;2022-11-12T11:03:26;6.70;;;6.20;;
7761;SDS011;3925;48.636;9.516;2022-11-12T11:05:57;5.83;;;5.43;;
7761;SDS011;3925;48.636;9.516;2022-11-12T11:08:33;7.27;;;6.77;;
7761;SDS011;3925;48.636;9.516;2022-11-12T11:11:09;6.53;;;5.93;;
7761;SDS011;3925;48.636;9.516;2022-11-12T11:13:43;7.47;;;6.87;;
7761;SDS011;3925;48.636;9.516;2022-11-12T11:16:13;6.93;;;6.40;;
7761;SDS011;3925;48.636;9.516;2022-11-12T11:18:41;7.70;;;7.10;;
7761;SDS011;3925;48.636;9.516;2022-11-12T11:21:17;6.77;;;6.37;;
7761;SDS011;3925;48.636;9.516;2022-11-12T11:23:52;6.73;;;6.23;;
7761;SDS011;3925;48.636;9.516;2022-11-12T11:26:25;7.90;;;7.20;;
7761;SDS011;3925;48.636;9.516;2022-11-12T11:28:59;6.87;;;6.37;;
7761;SDS011;3925;48.636;9.516;2022-11-12T11:31:43;9.30;;;8.50;;
7761;SDS011;3925;48.636;9.516;2022-11-12T11:34:18;7.80;;;7.20;;
7761;SDS011;3925;48.636;9.516;2022-11-12T11:36:52;7.67;;;7.17;;
7761;SDS011;3925;48.636;9.516;2022-11-12T11:39:29;9.23;;;7.60;;
7761;SDS011;3925;48.636;9.516;2022-11-12T11:42:07;8.33;;;7.53;;
7761;SDS011;3925;48.636;9.516;2022-11-12T11:44:44;8.23;;;7.53;;
7761;SDS011;3925;48.636;9.516;2022-11-12T11:47:26;7.13;;;6.63;;
7761;SDS011;3925;48.636;9.516;2022-11-12T11:50:00;7.10;;;6.40;;
7761;SDS011;3925;48.636;9.516;2022-11-12T11:52:43;8.30;;;7.50;;
7761;SDS011;3925;48.636;9.516;2022-11-12T11:55:17;9.47;;;8.77;;
7761;SDS011;3925;48.636;9.516;2022-11-12T11:58:03;9.17;;;8.47;;
7761;SDS011;3925;48.636;9.516;2022-11-12T12:00:41;7.53;;;6.93;;
7761;SDS011;3925;48.636;9.516;2022-11-12T12:03:20;8.30;;;7.63;;
7761;SDS011;3925;48.636;9.516;2022-11-12T12:08:53;8.13;;;7.43;;
7761;SDS011;3925;48.636;9.516;2022-11-12T12:11:29;7.90;;;7.20;;
7761;SDS011;3925;48.636;9.516;2022-11-12T12:14:04;7.43;;;6.83;;
7761;SDS011;3925;48.636;9.516;2022-11-12T12:16:53;7.00;;;6.50;;
7761;SDS011;3925;48.636;9.516;2022-11-12T12:19:38;8.23;;;7.53;;
7761;SDS011;3925;48.636;9.516;2022-11-12T12:22:16;8.20;;;7.60;;
7761;SDS011;3925;48.636;9.516;2022-11-12T12:24:50;10.27;;;8.93;;
7761;SDS011;3925;48.636;9.516;2022-11-12T12:27:21;8.10;;;7.47;;
7761;SDS011;3925;48.636;9.516;2022-11-12T12:29:53;7.57;;;6.70;;
7761;SDS011;3925;48.636;9.516;2022-11-12T12:32:26;8.33;;;7.63;;
7761;SDS011;3925;48.636;9.516;2022-11-12T12:35:00;7.87;;;7.17;;
7761;SDS011;3925;48.636;9.516;2022-11-12T12:37:32;7.80;;;7.13;;
7761;SDS011;3925;48.636;9.516;2022-11-12T12:40:04;7.23;;;6.63;;
7761;SDS011;3925;48.636;9.516;2022-11-12T12:42:41;7.93;;;7.33;;
7761;SDS011;3925;48.636;9.516;2022-11-12T12:45:23;7.80;;;7.10;;
7761;SDS011;3925;48.636;9.516;2022-11-12T12:47:57;7.03;;;6.53;;
7761;SDS011;3925;48.636;9.516;2022-11-12T12:50:28;8.27;;;7.67;;
7761;SDS011;3925;48.636;9.516;2022-11-12T12:52:59;8.70;;;7.90;;
7761;SDS011;3925;48.636;9.516;2022-11-12T12:55:34;8.10;;;7.37;;
7761;SDS011;3925;48.636;9.516;2022-11-12T12:58:03;7.17;;;6.27;;
7761;SDS011;3925;48.636;9.516;2022-11-12T13:00:31;7.90;;;7.30;;
7761;SDS011;3925;48.636;9.516;2022-11-12T13:03:02;8.23;;;7.50;;
7761;SDS011;3925;48.636;9.516;2022-11-12T13:05:30;7.77;;;7.17;;
7761;SDS011;3925;48.636;9.516;2022-11-12T13:08:00;8.03;;;7.33;;
7761;SDS011;3925;48.636;9.516;2022-11-12T13:16:05;10.00;;;9.00;;
7761;SDS011;3925;48.636;9.516;2022-11-12T13:18:55;9.43;;;8.50;;
7761;SDS011;3925;48.636;9.516;2022-11-12T13:21:28;9.57;;;8.67;;
7761;SDS011;3925;48.636;9.516;2022-11-12T13:23:58;11.40;;;9.17;;
7761;SDS011;3925;48.636;9.516;2022-11-12T13:26:51;10.80;;;9.80;;
7761;SDS011;3925;48.636;9.516;2022-11-12T13:29:21;11.00;;;10.10;;
7761;SDS011;3925;48.636;9.516;2022-11-12T13:31:50;10.03;;;9.13;;
7761;SDS011;3925;48.636;9.516;2022-11-12T13:35:14;9.57;;;8.67;;
7761;SDS011;3925;48.636;9.516;2022-11-12T13:37:53;11.67;;;10.27;;
7761;SDS011;3925;48.636;9.516;2022-11-12T13:40:29;10.37;;;9.47;;
7761;SDS011;3925;48.636;9.516;2022-11-12T13:43:03;9.60;;;8.60;;
7761;SDS011;3925;48.636;9.516;2022-11-12T13:45:37;8.97;;;8.17;;
7761;SDS011;3925;48.636;9.516;2022-11-12T13:48:07;10.13;;;9.23;;
7761;SDS011;3925;48.636;9.516;2022-11-12T13:50:40;9.20;;;8.40;;
7761;SDS011;3925;48.636;9.516;2022-11-12T13:53:09;9.60;;;8.80;;
7761;SDS011;3925;48.636;9.516;2022-11-12T13:55:48;9.77;;;8.87;;
7761;SDS011;3925;48.636;9.516;2022-11-12T13:58:23;10.43;;;9.53;;
7761;SDS011;3925;48.636;9.516;2022-11-12T14:00:52;9.87;;;9.00;;
7761;SDS011;3925;48.636;9.516;2022-11-12T14:03:21;8.87;;;8.10;;
7761;SDS011;3925;48.636;9.516;2022-11-12T14:05:52;11.17;;;10.13;;
7761;SDS011;3925;48.636;9.516;2022-11-12T14:11:30;11.87;;;9.10;;
7761;SDS011;3925;48.636;9.516;2022-11-12T14:14:11;10.23;;;9.43;;
7761;SDS011;3925;48.636;9.516;2022-11-12T14:16:52;10.70;;;9.83;;
7761;SDS011;3925;48.636;9.516;2022-11-12T14:19:47;10.43;;;9.50;;
7761;SDS011;3925;48.636;9.516;2022-11-12T14:22:23;11.90;;;10.57;;
7761;SDS011;3925;48.636;9.516;2022-11-12T14:24:53;11.83;;;10.73;;
7761;SDS011;3925;48.636;9.516;2022-11-12T14:27:32;11.33;;;10.10;;
7761;SDS011;3925;48.636;9.516;2022-11-12T14:30:04;10.60;;;9.57;;
7761;SDS011;3925;48.636;9.516;2022-11-12T14:32:39;11.50;;;10.50;;
7761;SDS011;3925;48.636;9.516;2022-11-12T14:35:20;11.83;;;10.60;;
7761;SDS011;3925;48.636;9.516;2022-11-12T14:37:56;10.40;;;9.50;;
7761;SDS011;3925;48.636;9.516;2022-11-12T14:40:30;11.47;;;10.30;;
7761;SDS011;3925;48.636;9.516;2022-11-12T14:42:58;12.63;;;11.43;;
7761;SDS011;3925;48.636;9.516;2022-11-12T14:45:26;15.80;;;14.20;;
7761;SDS011;3925;48.636;9.516;2022-11-12T14:47:53;15.93;;;12.77;;
7761;SDS011;3925;48.636;9.516;2022-11-12T14:50:21;13.80;;;12.43;;
7761;SDS011;3925;48.636;9.516;2022-11-12T14:52:53;12.07;;;10.97;;
7761;SDS011;3925;48.636;9.516;2022-11-12T14:55:27;13.90;;;12.60;;
7761;SDS011;3925;48.636;9.516;2022-11-12T14:57:58;14.50;;;13.17;;
7761;SDS011;3925;48.636;9.516;2022-11-12T15:03:05;13.20;;;12.00;;
7761;SDS011;3925;48.636;9.516;2022-11-12T15:05:34;11.90;;;10.77;;
7761;SDS011;3925;48.636;9.516;2022-11-12T15:08:26;12.10;;;10.97;;
7761;SDS011;3925;48.636;9.516;2022-11-12T15:10:57;10.10;;;8.90;;
7761;SDS011;3925;48.636;9.516;2022-11-12T15:13:44;9.93;;;9.03;;
7761;SDS011;3925;48.636;9.516;2022-11-12T15:16:15;11.40;;;10.40;;
7761;SDS011;3925;48.636;9.516;2022-11-12T15:18:44;12.10;;;10.10;;
7761;SDS011;3925;48.636;9.516;2022-11-12T15:21:28;10.60;;;9.60;;
7761;SDS011;3925;48.636;9.516;2022-11-12T15:23:57;10.77;;;9.80;;
7761;SDS011;3925;48.636;9.516;2022-11-12T15:26:33;12.47;;;11.27;;
7761;SDS011;3925;48.636;9.516;2022-11-12T15:29:03;13.73;;;12.33;;
7761;SDS011;3925;48.636;9.516;2022-11-12T15:31:44;10.47;;;9.57;;
7761;SDS011;3925;48.636;9.516;2022-11-12T15:34:26;11.33;;;10.23;;
7761;SDS011;3925;48.636;9.516;2022-11-12T15:36:58;10.37;;;7.67;;
7761;SDS011;3925;48.636;9.516;2022-11-12T15:39:28;9.30;;;6.60;;
7761;SDS011;3925;48.636;9.516;2022-11-12T15:42:00;7.57;;;6.87;;
7761;SDS011;3925;48.636;9.516;2022-11-12T15:44:29;7.53;;;6.83;;
7761;SDS011;3925;48.636;9.516;2022-11-12T15:46:58;8.40;;;7.57;;